Time;durP1;ratioP1;P1;durP2;ratioP2;P2;SDS_P1;SDS_P2;PMS_P1;PMS_P2;Temp;Humidity;BMP_temperature;BMP_pressure;BME280_temperature;BME280_humidity;BME280_pressure;Samples;Min_cycle;Max_cycle;Signal;HPM_P1;HPM_P2
2022/10/23 00:00:02;;;;;;;20.32;13.60;;;;;;;11.56;100.00;98281.38;1768423;81;20960;-80
2022/10/23 00:02:30;;;;;;;24.45;13.25;;;;;;;11.53;100.00;98280.56;1768547;81;21028;-82
2022/10/23 00:04:56;;;;;;;19.25;12.95;;;;;;;11.53;100.00;98287.89;1744991;82;21939;-81
2022/10/23 00:07:22;;;;;;;21.37;12.93;;;;;;;11.50;100.00;98293.89;1762683;81;20890;-82
2022/10/23 00:09:47;;;;;;;19.48;13.45;;;;;;;11.48;100.00;98293.36;1744936;82;21705;-79
2022/10/23 00:12:13;;;;;;;18.35;11.68;;;;;;;11.48;100.00;98290.65;1762663;81;20925;-82
2022/10/23 00:14:39;;;;;;;21.57;13.45;;;;;;;11.47;100.00;98295.27;1744868;82;20985;-82
2022/10/23 00:17:05;;;;;;;20.52;12.28;;;;;;;11.47;100.00;98295.81;1761866;81;21607;-79
2022/10/23 00:19:31;;;;;;;20.37;12.45;;;;;;;11.43;100.00;98305.58;1751912;81;20906;-79
2022/10/23 00:21:57;;;;;;;19.10;12.98;;;;;;;11.43;100.00;98311.01;1752288;81;21083;-82
2022/10/23 00:24:23;;;;;;;19.27;12.80;;;;;;;11.45;100.00;98312.89;1751958;81;20902;-80
2022/10/23 00:26:49;;;;;;;16.87;12.00;;;;;;;11.44;100.00;98313.98;1752415;81;20902;-82
2022/10/23 00:29:15;;;;;;;20.88;12.30;;;;;;;11.46;100.00;98319.42;1751747;81;21079;-82
2022/10/23 00:31:41;;;;;;;20.90;12.28;;;;;;;11.45;100.00;98319.16;1752212;81;21005;-82
2022/10/23 00:34:07;;;;;;;24.27;13.03;;;;;;;11.44;100.00;98323.48;1751903;81;20917;-79
2022/10/23 00:36:33;;;;;;;17.07;12.00;;;;;;;11.43;100.00;98321.31;1752168;81;21017;-82
2022/10/23 00:38:59;;;;;;;15.05;10.48;;;;;;;11.45;100.00;98328.66;1751980;81;20906;-82
2022/10/23 00:41:27;;;;;;;17.77;9.05;;;;;;;11.51;100.00;98326.72;1752252;81;21298;-82
2022/10/23 00:44:09;;;;;;;16.07;8.28;;;;;;;11.60;100.00;98318.26;1752105;81;21018;-81
2022/10/23 00:46:36;;;;;;;17.30;9.53;;;;;;;11.71;100.00;98322.56;1724281;81;21293;-81
2022/10/23 00:49:03;;;;;;;13.05;8.88;;;;;;;11.79;100.00;98319.27;1751992;81;21025;-82
2022/10/23 00:51:34;;;;;;;12.15;7.42;;;;;;;11.87;100.00;98312.44;1751871;81;21025;-80
2022/10/23 00:54:00;;;;;;;9.23;7.35;;;;;;;11.95;100.00;98323.26;1751868;81;21151;-81
2022/10/23 00:56:26;;;;;;;9.73;7.53;;;;;;;12.03;100.00;98324.02;1752204;81;20890;-82
2022/10/23 00:58:52;;;;;;;10.23;6.90;;;;;;;12.06;100.00;98322.94;1751871;81;20926;-82
2022/10/23 01:01:20;;;;;;;9.75;6.80;;;;;;;12.10;100.00;98321.81;1752290;81;20890;-82
2022/10/23 01:03:46;;;;;;;10.75;6.47;;;;;;;12.10;100.00;98325.88;1754925;81;20996;-82
2022/10/23 01:06:36;;;;;;;10.03;7.00;;;;;;;12.11;100.00;98328.31;1762614;81;21181;-79
2022/10/23 01:09:42;;;;;;;12.03;8.50;;;;;;;12.07;100.00;98330.53;1739282;81;21024;-79
2022/10/23 01:12:50;;;;;;;10.53;7.40;;;;;;;11.99;100.00;98333.30;1762478;81;21020;-82
2022/10/23 01:15:24;;;;;;;9.93;7.97;;;;;;;11.93;100.00;98334.41;1667390;85;21046;-82
2022/10/23 01:18:07;;;;;;;13.25;9.18;;;;;;;11.84;100.00;98345.59;1795142;79;21069;-82
2022/10/23 01:20:43;;;;;;;11.80;8.63;;;;;;;11.74;100.00;98338.28;1811419;79;21066;-79
2022/10/23 01:23:43;;;;;;;16.32;10.15;;;;;;;11.67;100.00;98343.75;1755250;79;21244;-79
2022/10/23 01:26:56;;;;;;;15.38;9.83;;;;;;;11.64;100.00;98347.03;1811775;78;20993;-78
2022/10/23 01:29:35;;;;;;;16.10;11.50;;;;;;;11.62;100.00;98341.05;1811456;79;21237;-82
2022/10/23 01:32:09;;;;;;;12.63;9.88;;;;;;;11.61;100.00;98351.64;1811636;79;20993;-82
2022/10/23 01:34:51;;;;;;;10.90;8.83;;;;;;;11.59;100.00;98347.85;1811603;79;21064;-82
2022/10/23 01:37:23;;;;;;;10.32;7.10;;;;;;;11.57;100.00;98345.97;1811671;79;21460;-82
2022/10/23 01:39:51;;;;;;;13.53;7.92;;;;;;;11.52;100.00;98340.00;1811562;78;20977;-80
2022/10/23 01:42:31;;;;;;;11.75;8.33;;;;;;;11.48;100.00;98350.34;1811825;78;21045;-79
2022/10/23 01:45:08;;;;;;;13.75;10.10;;;;;;;11.42;100.00;98350.91;1811583;79;21048;-81
2022/10/23 01:47:34;;;;;;;13.28;8.48;;;;;;;11.40;100.00;98346.85;1811694;79;21944;-79
2022/10/23 01:50:01;;;;;;;10.95;7.75;;;;;;;11.38;100.00;98344.97;1811427;78;21044;-80
2022/10/23 01:52:27;;;;;;;11.75;8.13;;;;;;;11.35;100.00;98352.28;1745162;81;21068;-81
2022/10/23 01:54:54;;;;;;;12.50;8.03;;;;;;;11.32;100.00;98344.70;1762663;81;20949;-81
2022/10/23 01:57:20;;;;;;;10.40;7.90;;;;;;;11.30;100.00;98348.52;1762736;81;21230;-81
2022/10/23 01:59:50;;;;;;;10.48;6.70;;;;;;;11.28;100.00;98343.91;1745109;81;21804;-79
2022/10/23 02:02:16;;;;;;;15.28;8.03;;;;;;;11.27;100.00;98345.52;1762804;81;21016;-82
2022/10/23 02:05:03;;;;;;;10.32;8.25;;;;;;;11.22;100.00;98340.13;1755843;81;20910;-81
2022/10/23 02:07:29;;;;;;;12.58;7.45;;;;;;;11.18;100.00;98341.75;1752137;81;21033;-82
2022/10/23 02:09:55;;;;;;;9.98;8.10;;;;;;;11.13;100.00;98353.44;1752324;81;20962;-78
2022/10/23 02:13:02;;;;;;;13.05;8.63;;;;;;;11.07;100.00;98359.14;1724587;81;21153;-81
2022/10/23 02:15:36;;;;;;;11.53;8.08;;;;;;;11.01;100.00;98357.78;1752086;81;21001;-79
2022/10/23 02:18:10;;;;;;;11.15;8.00;;;;;;;10.97;100.00;98366.76;1752225;81;21096;-79
2022/10/23 02:20:43;;;;;;;11.97;8.48;;;;;;;10.92;100.00;98359.97;1751406;81;20990;-79
2022/10/23 02:23:23;;;;;;;13.88;8.55;;;;;;;10.89;100.00;98363.24;1752254;81;21035;-82
2022/10/23 02:26:16;;;;;;;12.47;8.85;;;;;;;10.87;100.00;98371.66;1751721;81;21208;-79
2022/10/23 02:28:46;;;;;;;14.05;9.03;;;;;;;10.86;100.00;98376.00;1752009;81;21001;-81
2022/10/23 02:31:13;;;;;;;13.85;9.30;;;;;;;10.84;100.00;98376.79;1752451;81;21099;-79
2022/10/23 02:33:39;;;;;;;13.98;9.25;;;;;;;10.82;100.00;98376.26;1724218;81;21285;-82
2022/10/23 02:36:06;;;;;;;16.60;10.93;;;;;;;10.81;100.00;98374.64;1752107;81;22324;-82
2022/10/23 02:38:35;;;;;;;14.73;10.30;;;;;;;10.81;100.00;98380.06;1724513;81;21275;-79
2022/10/23 02:41:12;;;;;;;16.97;10.78;;;;;;;10.82;100.00;98377.06;1751856;81;20996;-79
2022/10/23 02:44:08;;;;;;;17.62;10.48;;;;;;;10.82;100.00;98369.48;1751728;81;32533;-79
2022/10/23 02:47:27;;;;;;;60.05;30.55;;;;;;;10.80;100.00;98374.38;1751941;81;21001;-79
2022/10/23 02:50:32;;;;;;;33.30;19.32;;;;;;;10.77;100.00;98377.60;1752243;81;20998;-82
2022/10/23 02:53:27;;;;;;;16.55;11.93;;;;;;;10.73;100.00;98381.41;1751272;81;21081;-81
2022/10/23 02:56:04;;;;;;;13.53;8.50;;;;;;;10.72;100.00;98377.08;1751679;81;21458;-82
2022/10/23 02:59:03;;;;;;;13.00;9.48;;;;;;;10.71;100.00;98380.88;1752240;81;20970;-81
2022/10/23 03:01:34;;;;;;;32.65;15.40;;;;;;;10.68;100.00;98380.05;1752167;81;21750;-79
2022/10/23 03:04:01;;;;;;;47.88;25.27;;;;;;;10.67;100.00;98382.48;1754926;81;21012;-79
2022/10/23 03:06:27;;;;;;;51.35;25.30;;;;;;;10.67;100.00;98399.56;1762835;81;21958;-79
2022/10/23 03:09:04;;;;;;;33.38;19.25;;;;;;;10.63;100.00;98397.14;1744834;82;20893;-82
2022/10/23 03:11:30;;;;;;;33.78;15.98;;;;;;;10.60;100.00;98404.46;1744879;82;21021;-79
2022/10/23 03:13:56;;;;;;;22.87;15.13;;;;;;;10.57;100.00;98402.27;1762610;81;20948;-82
2022/10/23 03:16:21;;;;;;;27.32;14.30;;;;;;;10.56;100.00;98406.07;1744978;82;21434;-79
2022/10/23 03:18:47;;;;;;;22.00;11.48;;;;;;;10.56;100.00;98407.42;1762327;81;21316;-83
2022/10/23 03:21:13;;;;;;;18.73;12.13;;;;;;;10.55;100.00;98407.16;1744902;82;20854;-79
2022/10/23 03:23:39;;;;;;;17.50;11.18;;;;;;;10.53;100.00;98400.39;1762497;81;20929;-78
2022/10/23 03:26:05;;;;;;;28.20;12.00;;;;;;;10.50;100.00;98399.02;1744866;82;21020;-79
2022/10/23 03:28:31;;;;;;;16.00;10.93;;;;;;;10.48;100.00;98399.02;1762690;81;20980;-78
2022/10/23 03:30:57;;;;;;;17.10;11.63;;;;;;;10.43;100.00;98396.59;1762551;81;21179;-81
2022/10/23 03:33:23;;;;;;;15.88;12.60;;;;;;;10.39;100.00;98394.13;1762554;81;21072;-79
2022/10/23 03:35:49;;;;;;;16.32;11.45;;;;;;;10.35;100.00;98392.25;1744887;82;21562;-81
2022/10/23 03:38:15;;;;;;;21.27;11.63;;;;;;;10.32;100.00;98400.89;1762546;81;20878;-79
2022/10/23 03:40:41;;;;;;;17.67;11.00;;;;;;;10.25;100.00;98399.79;1744946;81;21749;-81
2022/10/23 03:43:07;;;;;;;19.37;10.95;;;;;;;10.16;100.00;98398.66;1762608;81;21664;-79
2022/10/23 03:45:33;;;;;;;22.95;12.23;;;;;;;10.12;100.00;98396.23;1744999;81;20965;-79
2022/10/23 03:47:59;;;;;;;31.57;14.50;;;;;;;10.08;100.00;98389.19;1762604;81;20909;-81
2022/10/23 03:50:25;;;;;;;21.57;13.32;;;;;;;10.06;100.00;98394.58;1762687;81;21524;-81
2022/10/23 03:52:51;;;;;;;16.87;10.80;;;;;;;10.02;100.00;98390.79;1745020;82;20862;-81
2022/10/23 03:55:17;;;;;;;13.58;9.35;;;;;;;9.96;100.00;98382.38;1762529;81;21732;-82
2022/10/23 03:57:43;;;;;;;13.90;9.40;;;;;;;9.88;100.00;98387.22;1744979;82;20889;-81
2022/10/23 04:00:09;;;;;;;14.75;8.95;;;;;;;9.83;100.00;98395.34;1762734;81;20920;-81
2022/10/23 04:02:35;;;;;;;18.05;10.38;;;;;;;9.78;100.00;98391.25;1744905;81;21001;-81
2022/10/23 04:05:01;;;;;;;18.70;10.60;;;;;;;9.73;100.00;98395.82;1781650;80;20863;-81
2022/10/23 04:07:27;;;;;;;15.63;10.63;;;;;;;9.65;100.00;98403.09;1772879;80;21316;-79
2022/10/23 04:09:53;;;;;;;13.55;9.93;;;;;;;9.56;100.00;98400.89;1772533;80;20904;-82
2022/10/23 04:12:19;;;;;;;18.57;12.15;;;;;;;9.46;100.00;98408.16;1772761;80;21636;-80
2022/10/23 04:14:45;;;;;;;15.08;11.50;;;;;;;9.37;100.00;98405.67;1772745;80;20852;-81
2022/10/23 04:17:11;;;;;;;15.08;10.98;;;;;;;9.33;100.00;98401.34;1772798;80;21031;-79
2022/10/23 04:19:36;;;;;;;13.05;9.75;;;;;;;9.29;100.00;98399.67;1772833;80;21104;-79
2022/10/23 04:22:02;;;;;;;14.03;9.05;;;;;;;9.20;100.00;98395.84;1772674;80;21004;-79
2022/10/23 04:24:28;;;;;;;14.43;8.65;;;;;;;9.12;100.00;98397.68;1772842;80;20924;-78
2022/10/23 04:26:54;;;;;;;13.78;9.35;;;;;;;9.05;100.00;98397.91;1772607;80;21020;-81
2022/10/23 04:29:23;;;;;;;14.83;10.72;;;;;;;8.97;100.00;98394.36;1772725;80;21051;-81
2022/10/23 04:31:48;;;;;;;20.97;10.30;;;;;;;8.95;100.00;98401.08;1772399;80;21863;-79
2022/10/23 04:34:14;;;;;;;16.45;10.90;;;;;;;8.95;100.00;98401.08;1772558;81;20995;-79
2022/10/23 04:36:40;;;;;;;18.15;10.48;;;;;;;8.94;100.00;98396.75;1772583;80;21496;-81
2022/10/23 04:39:06;;;;;;;15.25;10.70;;;;;;;8.95;100.00;98402.43;1772495;81;20996;-81
2022/10/23 04:41:32;;;;;;;16.50;11.20;;;;;;;8.93;100.00;98394.59;1772678;80;20885;-79
2022/10/23 04:43:58;;;;;;;19.52;10.88;;;;;;;8.96;100.00;98398.11;1772686;81;21834;-81
2022/10/23 04:46:24;;;;;;;15.80;10.95;;;;;;;8.95;100.00;98395.14;1772714;80;20885;-81
2022/10/23 04:48:50;;;;;;;24.65;11.15;;;;;;;8.95;100.00;98397.84;1772757;81;20952;-81
2022/10/23 04:51:16;;;;;;;16.67;10.13;;;;;;;8.90;100.00;98405.11;1772551;80;20908;-78
2022/10/23 04:53:41;;;;;;;19.37;11.85;;;;;;;8.88;100.00;98409.94;1772740;80;20960;-78
2022/10/23 04:56:13;;;;;;;16.40;12.13;;;;;;;8.81;100.00;98408.84;1772783;80;21708;-82
2022/10/23 04:58:39;;;;;;;20.43;11.55;;;;;;;8.76;100.00;98411.48;1772709;80;21023;-81
2022/10/23 05:01:06;;;;;;;14.25;9.78;;;;;;;8.74;100.00;98418.50;1772775;80;22389;-81
2022/10/23 05:03:32;;;;;;;15.78;10.78;;;;;;;8.72;100.00;98419.30;1771974;80;21056;-79
2022/10/23 05:05:58;;;;;;;14.20;9.93;;;;;;;8.71;100.00;98419.00;1768792;81;20881;-81
2022/10/23 05:08:24;;;;;;;14.30;10.32;;;;;;;8.69;100.00;98411.70;1768792;81;21236;-81
2022/10/23 05:10:50;;;;;;;14.90;10.08;;;;;;;8.69;100.00;98406.83;1768541;81;21590;-78
2022/10/23 05:13:18;;;;;;;18.67;11.05;;;;;;;8.64;100.00;98412.20;1768792;81;20896;-80
2022/10/23 05:15:47;;;;;;;16.15;9.98;;;;;;;8.62;100.00;98407.04;1745908;82;20977;-78
2022/10/23 05:18:32;;;;;;;14.68;8.55;;;;;;;8.64;100.00;98410.86;1768688;81;26941;-82
2022/10/23 05:21:18;;;;;;;14.15;10.38;;;;;;;8.63;100.00;98408.70;1740740;81;21378;-81
2022/10/23 05:23:44;;;;;;;21.07;14.68;;;;;;;8.58;100.00;98403.23;1768352;81;20973;-78
2022/10/23 05:26:09;;;;;;;20.50;12.82;;;;;;;8.61;100.00;98405.95;1745742;82;20866;-79
2022/10/23 05:28:35;;;;;;;14.85;10.78;;;;;;;8.62;100.00;98408.39;1768644;81;20893;-79
2022/10/23 05:31:02;;;;;;;18.85;12.30;;;;;;;8.60;100.00;98405.14;1745841;82;21602;-78
2022/10/23 05:33:28;;;;;;;20.55;11.90;;;;;;;8.56;100.00;98404.03;1768535;81;21302;-78
2022/10/23 05:35:54;;;;;;;29.95;20.08;;;;;;;8.55;100.00;98405.11;1768802;81;21012;-81
2022/10/23 05:38:20;;;;;;;32.17;17.80;;;;;;;8.55;100.00;98405.66;1745765;82;20945;-81
2022/10/23 05:40:46;;;;;;;34.70;19.10;;;;;;;8.56;100.00;98398.63;1768736;81;20968;-78
2022/10/23 05:43:12;;;;;;;32.85;19.57;;;;;;;8.56;100.00;98399.98;1768789;81;21293;-78
2022/10/23 05:45:38;;;;;;;31.82;20.10;;;;;;;8.59;100.00;98410.80;1745884;82;21085;-79
2022/10/23 05:48:05;;;;;;;32.53;19.05;;;;;;;8.60;100.00;98403.78;1768634;81;20900;-83
2022/10/23 05:50:32;;;;;;;36.83;19.70;;;;;;;8.64;100.00;98412.20;1745804;82;21457;-82
2022/10/23 05:52:58;;;;;;;38.95;16.90;;;;;;;8.67;100.00;98408.98;1693092;82;21572;-81
2022/10/23 05:55:24;;;;;;;30.77;16.42;;;;;;;8.70;100.00;98419.27;1768805;81;20956;-82
2022/10/23 05:57:50;;;;;;;33.88;16.80;;;;;;;8.69;100.00;98414.94;1768813;81;21168;-79
2022/10/23 06:00:16;;;;;;;37.03;15.95;;;;;;;8.69;100.00;98414.94;1768631;81;20880;-82
2022/10/23 06:02:42;;;;;;;28.70;16.40;;;;;;;8.67;100.00;98420.60;1768650;81;21059;-78
2022/10/23 06:05:08;;;;;;;31.35;16.35;;;;;;;8.68;100.00;98422.77;1751222;80;21115;-81
2022/10/23 06:07:34;;;;;;;40.17;16.40;;;;;;;8.68;100.00;98420.88;1772920;80;21027;-78
2022/10/23 06:10:00;;;;;;;30.95;14.53;;;;;;;8.68;100.00;98419.52;1772624;81;21140;-81
2022/10/23 06:12:26;;;;;;;27.17;14.40;;;;;;;8.67;100.00;98426.00;1772808;80;20889;-81
2022/10/23 06:14:52;;;;;;;24.30;15.23;;;;;;;8.75;100.00;98434.17;1772727;81;20889;-79
2022/10/23 06:17:17;;;;;;;24.43;15.50;;;;;;;8.86;100.00;98432.36;1772682;80;20841;-81
2022/10/23 06:19:44;;;;;;;25.45;14.43;;;;;;;8.95;100.00;98438.37;1773213;80;21019;-81
2022/10/23 06:22:10;;;;;;;28.70;15.60;;;;;;;9.03;100.00;98439.25;1772546;80;21068;-79
2022/10/23 06:24:36;;;;;;;27.82;17.45;;;;;;;9.09;100.00;98442.81;1772803;80;21594;-79
2022/10/23 06:27:02;;;;;;;32.63;18.35;;;;;;;9.12;100.00;98444.18;1772708;80;20881;-79
2022/10/23 06:29:28;;;;;;;28.20;17.48;;;;;;;9.13;100.00;98445.80;1772762;80;20956;-78
2022/10/23 06:31:54;;;;;;;37.58;19.60;;;;;;;9.12;100.00;98446.34;1772640;80;20869;-78
2022/10/23 06:34:20;;;;;;;29.35;18.87;;;;;;;9.15;100.00;98454.49;1772419;80;21197;-79
2022/10/23 06:36:46;;;;;;;25.97;18.37;;;;;;;9.16;100.00;98456.13;1772425;80;21001;-78
2022/10/23 06:39:11;;;;;;;36.75;21.68;;;;;;;9.18;100.00;98462.08;1772516;80;20960;-81
2022/10/23 06:41:40;;;;;;;37.42;22.13;;;;;;;9.16;100.00;98460.17;1772774;80;20977;-81
2022/10/23 06:44:05;;;;;;;33.78;20.40;;;;;;;9.21;100.00;98458.30;1772553;80;21052;-79
2022/10/23 06:46:31;;;;;;;35.28;19.82;;;;;;;9.23;100.00;98457.53;1772767;80;21337;-79
2022/10/23 06:48:57;;;;;;;36.77;20.90;;;;;;;9.33;100.00;98462.19;1695998;81;21031;-82
2022/10/23 06:51:28;;;;;;;29.02;18.45;;;;;;;9.47;100.00;98458.47;1744438;81;20896;-79
2022/10/23 06:53:51;;;;;;;34.30;19.90;;;;;;;9.66;100.00;98467.80;1772003;80;21068;-79
2022/10/23 06:56:17;;;;;;;26.37;16.05;;;;;;;9.79;100.00;98469.20;1772825;80;20909;-79
2022/10/23 06:58:43;;;;;;;22.73;14.35;;;;;;;9.92;100.00;98468.73;1772702;80;21100;-79
2022/10/23 07:01:10;;;;;;;24.57;17.20;;;;;;;10.10;100.00;98472.86;1772652;80;21871;-81
2022/10/23 07:03:36;;;;;;;39.30;25.37;;;;;;;10.28;100.00;98474.30;1743664;81;21514;-79
2022/10/23 07:06:04;;;;;;;26.93;19.77;;;;;;;10.36;100.00;98476.48;1779889;80;21000;-82
2022/10/23 07:08:30;;;;;;;26.02;16.05;;;;;;;10.28;100.00;98485.95;1780018;80;21476;-81
2022/10/23 07:10:56;;;;;;;21.77;14.43;;;;;;;10.38;100.00;98486.52;1761304;81;21143;-81
2022/10/23 07:13:23;;;;;;;18.23;11.88;;;;;;;10.42;100.00;98491.14;1761134;81;21784;-79
2022/10/23 07:15:50;;;;;;;18.73;11.55;;;;;;;10.61;100.00;98497.41;1761111;81;21063;-79
2022/10/23 07:18:18;;;;;;;17.55;11.70;;;;;;;10.60;100.00;98498.50;1761259;81;21453;-82
2022/10/23 07:20:47;;;;;;;17.35;12.05;;;;;;;10.63;100.00;98492.53;1761248;81;21126;-79
2022/10/23 07:23:11;;;;;;;20.00;14.83;;;;;;;10.69;100.00;98495.53;1760975;81;21230;-81
2022/10/23 07:25:37;;;;;;;20.92;14.03;;;;;;;10.76;100.00;98490.64;1761274;81;21012;-81
2022/10/23 07:28:04;;;;;;;19.12;13.48;;;;;;;10.78;100.00;98494.46;1761248;81;21018;-82
2022/10/23 07:30:30;;;;;;;21.30;12.33;;;;;;;10.88;100.00;98491.21;1761261;81;21047;-79
2022/10/23 07:32:56;;;;;;;20.80;14.25;;;;;;;11.04;100.00;98487.16;1761223;81;20995;-80
2022/10/23 07:35:23;;;;;;;18.10;12.33;;;;;;;11.08;100.00;98489.04;1761443;81;21350;-79
2022/10/23 07:37:49;;;;;;;18.92;12.93;;;;;;;11.11;100.00;98489.03;1760972;81;22042;-80
2022/10/23 07:40:16;;;;;;;15.18;11.57;;;;;;;11.09;100.00;98479.81;1761345;81;20880;-79
2022/10/23 07:42:42;;;;;;;16.50;10.95;;;;;;;11.14;100.00;98482.54;1760982;81;21019;-79
2022/10/23 07:45:08;;;;;;;14.98;11.85;;;;;;;11.17;100.00;98484.70;1761308;81;20884;-82
2022/10/23 07:47:34;;;;;;;16.05;11.28;;;;;;;11.21;100.00;98490.41;1761167;81;21109;-79
2022/10/23 07:50:00;;;;;;;15.35;11.18;;;;;;;11.28;100.00;98499.09;1761151;81;20884;-82
2022/10/23 07:52:26;;;;;;;18.57;10.82;;;;;;;11.36;100.00;98505.30;1760991;81;20873;-82
2022/10/23 07:54:52;;;;;;;14.78;11.38;;;;;;;11.39;100.00;98492.55;1761153;81;20955;-81
2022/10/23 07:57:19;;;;;;;20.27;13.43;;;;;;;11.42;100.00;98487.93;1761207;81;21039;-79
2022/10/23 07:59:45;;;;;;;16.90;12.53;;;;;;;11.51;100.00;98482.22;1761303;81;21689;-81
2022/10/23 08:02:12;;;;;;;23.52;14.53;;;;;;;11.68;100.00;98479.19;1761164;81;20983;-82
2022/10/23 08:04:37;;;;;;;22.17;14.43;;;;;;;11.82;100.00;98473.49;1761393;81;21381;-82
2022/10/23 08:07:04;;;;;;;36.13;20.20;;;;;;;12.00;100.00;98473.42;1760926;81;21015;-82
2022/10/23 08:09:30;;;;;;;31.65;18.52;;;;;;;12.20;100.00;98479.30;1761373;81;21590;-82
2022/10/23 08:11:56;;;;;;;16.82;11.10;;;;;;;12.37;100.00;98478.95;1761257;81;21070;-79
2022/10/23 08:14:22;;;;;;;14.28;10.38;;;;;;;12.51;100.00;98485.95;1760967;81;20892;-82
2022/10/23 08:16:48;;;;;;;14.63;9.63;;;;;;;12.56;100.00;98484.55;1761094;81;21007;-79
2022/10/23 08:19:13;;;;;;;13.35;10.20;;;;;;;12.60;100.00;98486.44;1761146;81;20872;-82
2022/10/23 08:21:39;;;;;;;13.95;9.73;;;;;;;12.65;100.00;98482.34;1761239;81;20900;-81
2022/10/23 08:24:06;;;;;;;11.50;8.83;;;;;;;12.72;100.00;98475.20;1761186;81;21303;-79
2022/10/23 08:26:32;;;;;;;14.65;10.78;;;;;;;12.71;100.00;98477.11;1761166;81;20999;-79
2022/10/23 08:28:58;;;;;;;16.62;10.78;;;;;;;12.75;100.00;98460.25;1761198;81;21050;-82
2022/10/23 08:31:24;;;;;;;15.60;11.48;;;;;;;12.77;100.00;98463.49;1761418;81;20988;-82
2022/10/23 08:33:50;;;;;;;16.57;11.28;;;;;;;12.86;100.00;98461.23;1761431;81;20927;-79
2022/10/23 08:36:25;;;;;;;15.08;9.65;;;;;;;12.98;100.00;98456.78;1761358;81;20992;-81
2022/10/23 08:38:52;;;;;;;13.60;8.53;;;;;;;13.14;100.00;98466.45;1761134;81;21007;-79
2022/10/23 08:41:42;;;;;;;14.15;7.37;;;;;;;13.25;100.00;98467.22;1761413;81;21018;-80
2022/10/23 08:44:33;;;;;;;9.65;6.50;;;;;;;13.35;100.00;98465.77;1731778;81;22121;-79
2022/10/23 08:47:19;;;;;;;10.75;6.90;;;;;;;13.50;100.00;98474.30;1761376;81;21522;-79
2022/10/23 08:50:08;;;;;;;8.38;6.00;;;;;;;13.65;100.00;98480.97;1761499;81;21059;-82
2022/10/23 08:52:40;;;;;;;10.35;7.55;;;;;;;13.83;100.00;98481.58;1760170;81;21027;-79
2022/10/23 08:55:34;;;;;;;10.13;8.10;;;;;;;13.89;100.00;98480.98;1760182;81;21051;-79
2022/10/23 08:58:14;;;;;;;11.33;8.33;;;;;;;14.04;100.00;98475.91;1761241;81;21000;-80
2022/10/23 09:00:39;;;;;;;10.53;8.18;;;;;;;14.11;100.00;98466.28;1761400;81;21370;-79
2022/10/23 09:03:05;;;;;;;8.80;6.47;;;;;;;14.21;100.00;98468.63;1706814;81;21366;-82
2022/10/23 09:05:40;;;;;;;9.88;6.95;;;;;;;14.30;100.00;98467.67;1731700;81;21008;-80
2022/10/23 09:08:39;;;;;;;14.53;8.18;;;;;;;14.40;100.00;98475.70;1731009;82;21417;-82
2022/10/23 09:11:31;;;;;;;8.30;7.20;;;;;;;14.53;100.00;98485.13;1731390;82;21027;-82
2022/10/23 09:14:18;;;;;;;10.10;6.45;;;;;;;14.61;100.00;98482.27;1731037;82;21032;-79
2022/10/23 09:17:26;;;;;;;9.65;6.03;;;;;;;14.67;100.00;98472.91;1731273;82;21876;-80
2022/10/23 09:20:19;;;;;;;10.95;6.30;;;;;;;14.74;100.00;98472.55;1731350;82;21087;-81
2022/10/23 09:22:46;;;;;;;12.60;6.28;;;;;;;14.79;100.00;98477.39;1731241;82;21008;-80
2022/10/23 09:25:21;;;;;;;8.48;5.80;;;;;;;14.83;100.00;98478.95;1731229;82;21008;-82
2022/10/23 09:27:52;;;;;;;7.55;5.83;;;;;;;14.84;100.00;98484.11;1729684;82;21024;-82
2022/10/23 09:30:34;;;;;;;12.98;7.65;;;;;;;14.87;100.00;98478.64;1731241;82;21024;-80
2022/10/23 09:33:19;;;;;;;9.53;6.55;;;;;;;14.93;100.00;98483.70;1730965;82;21543;-79
2022/10/23 09:35:58;;;;;;;6.83;5.15;;;;;;;14.98;100.00;98479.28;1731055;82;21063;-79
2022/10/23 09:38:33;;;;;;;9.80;5.75;;;;;;;15.04;100.00;98477.55;1720583;82;21008;-79
2022/10/23 09:41:20;;;;;;;12.45;6.25;;;;;;;15.09;100.00;98482.09;1731322;82;21028;-80
2022/10/23 09:43:46;;;;;;;8.95;6.10;;;;;;;15.11;100.00;98477.95;1731181;82;21324;-82
2022/10/23 09:46:12;;;;;;;7.42;5.55;;;;;;;15.15;100.00;98469.44;1731101;82;21024;-79
2022/10/23 09:48:41;;;;;;;10.88;6.33;;;;;;;15.19;100.00;98471.00;1731003;82;21074;-80
2022/10/23 09:51:19;;;;;;;11.93;7.00;;;;;;;15.21;100.00;98465.52;1731143;82;21464;-80
2022/10/23 09:53:58;;;;;;;9.83;5.90;;;;;;;15.27;100.00;98457.23;1731271;82;21107;-80
2022/10/23 09:56:29;;;;;;;;;;;;;;;15.27;100.00;98457.23;1733757;82;21508;-80
2022/10/23 09:59:11;;;;;;;7.47;4.95;;;;;;;15.39;100.00;98462.48;1733463;82;20188;-80
2022/10/23 10:01:51;;;;;;;8.60;5.35;;;;;;;15.46;100.00;98461.51;1703908;83;21086;-82
2022/10/23 10:04:17;;;;;;;20.72;11.30;;;;;;;15.59;100.00;98452.29;1764015;81;21496;-82
2022/10/23 10:06:43;;;;;;;10.58;5.97;;;;;;;15.65;100.00;98451.93;1745050;82;21622;-80
2022/10/23 10:09:15;;;;;;;10.93;4.65;;;;;;;15.74;100.00;98461.05;1762537;81;21016;-82
2022/10/23 10:11:46;;;;;;;9.13;5.47;;;;;;;15.81;100.00;98449.72;1762740;81;22181;-83
2022/10/23 10:14:30;;;;;;;9.28;5.90;;;;;;;15.85;100.00;98451.27;1761705;81;21056;-80
2022/10/23 10:17:26;;;;;;;12.55;6.50;;;;;;;15.92;98.90;98453.05;1743626;81;21064;-83
2022/10/23 10:20:22;;;;;;;10.63;4.05;;;;;;;15.99;99.69;98443.34;1762766;81;21008;-83
2022/10/23 10:23:07;;;;;;;7.97;4.25;;;;;;;16.06;97.85;98442.91;1754408;81;21140;-80
2022/10/23 10:25:48;;;;;;;11.28;6.25;;;;;;;16.13;98.15;98432.93;1762485;81;21008;-83
2022/10/23 10:28:25;;;;;;;28.12;17.52;;;;;;;16.07;97.56;98431.69;1761853;81;21434;-79
2022/10/23 10:31:40;;;;;;;8.23;5.08;;;;;;;16.04;98.55;98433.64;1745160;82;20973;-80
2022/10/23 10:34:23;;;;;;;7.55;4.37;;;;;;;16.05;96.87;98420.78;1762692;81;20989;-82
2022/10/23 10:37:27;;;;;;;6.15;4.22;;;;;;;16.18;96.89;98424.63;1762845;81;22036;-83
2022/10/23 10:40:11;;;;;;;5.35;3.67;;;;;;;16.26;93.98;98423.35;1762763;81;20996;-82
2022/10/23 10:42:43;;;;;;;6.53;4.28;;;;;;;16.31;95.13;98419.68;1762724;81;21000;-83
2022/10/23 10:45:38;;;;;;;7.22;3.80;;;;;;;16.47;92.49;98405.11;1715561;82;21017;-80
2022/10/23 10:48:37;;;;;;;8.55;3.75;;;;;;;16.57;92.85;98404.30;1745017;81;21013;-80
2022/10/23 10:51:06;;;;;;;6.78;4.17;;;;;;;16.69;94.84;98401.63;1763044;81;21168;-80
2022/10/23 10:53:56;;;;;;;7.17;4.33;;;;;;;16.73;94.27;98401.25;1762402;81;21014;-81
2022/10/23 10:56:24;;;;;;;6.50;3.25;;;;;;;16.78;94.43;98395.10;1762650;81;20996;-83
2022/10/23 10:59:00;;;;;;;3.72;2.35;;;;;;;16.91;91.48;98388.73;1745156;81;21028;-82
2022/10/23 11:01:31;;;;;;;5.50;2.75;;;;;;;17.03;91.82;98386.81;1767997;81;21035;-82
2022/10/23 11:04:40;;;;;;;6.92;2.70;;;;;;;17.09;90.67;98384.73;1768623;81;21171;-82
2022/10/23 11:07:14;;;;;;;5.17;2.55;;;;;;;17.14;91.14;98375.84;1769452;81;21114;-82
2022/10/23 11:09:41;;;;;;;3.22;2.92;;;;;;;17.22;89.63;98368.80;1769449;81;21482;-83
2022/10/23 11:12:23;;;;;;;2.92;1.92;;;;;;;17.31;86.68;98368.84;1769433;79;21055;-80
2022/10/23 11:14:49;;;;;;;5.95;2.22;;;;;;;17.35;87.43;98381.60;1769560;81;21038;-80
2022/10/23 11:17:19;;;;;;;4.67;2.10;;;;;;;17.41;85.21;98382.25;1769227;81;21112;-82
2022/10/23 11:20:15;;;;;;;3.12;1.90;;;;;;;17.46;82.85;98379.39;1769341;81;21046;-83
2022/10/23 11:22:55;;;;;;;3.90;2.40;;;;;;;17.51;82.93;98381.16;1769253;81;21023;-80
2022/10/23 11:26:06;;;;;;;3.27;2.10;;;;;;;17.53;83.92;98384.42;1769154;81;21055;-83
2022/10/23 11:28:49;;;;;;;3.85;1.95;;;;;;;17.57;82.03;98379.91;1769037;81;21304;-83
2022/10/23 11:31:49;;;;;;;3.42;3.12;;;;;;;17.58;83.70;98374.11;1769202;81;21250;-80
2022/10/23 11:34:44;;;;;;;3.35;2.00;;;;;;;17.58;83.45;98367.82;1769108;81;20975;-80
2022/10/23 11:37:17;;;;;;;3.40;1.98;;;;;;;17.58;82.12;98359.60;1769359;81;21471;-83
2022/10/23 11:40:05;;;;;;;3.72;2.40;;;;;;;17.57;82.53;98369.75;1769414;81;21031;-82